sensor_id;sensor_type;location;lat;lon;timestamp;P1;durP1;ratioP1;P2;durP2;ratioP2
11141;SDS011;5625;50.122;19.864;2022-12-01T00:01:31;46.93;;;32.10;;
11141;SDS011;5625;50.122;19.864;2022-12-01T00:03:59;44.13;;;31.83;;
11141;SDS011;5625;50.122;19.864;2022-12-01T00:06:28;50.20;;;32.30;;
11141;SDS011;5625;50.122;19.864;2022-12-01T00:08:59;49.90;;;32.00;;
11141;SDS011;5625;50.122;19.864;2022-12-01T00:11:45;48.63;;;31.77;;
11141;SDS011;5625;50.122;19.864;2022-12-01T00:14:13;46.57;;;32.20;;
11141;SDS011;5625;50.122;19.864;2022-12-01T00:16:42;52.33;;;34.93;;
11141;SDS011;5625;50.122;19.864;2022-12-01T00:19:10;52.57;;;33.07;;
11141;SDS011;5625;50.122;19.864;2022-12-01T00:21:40;50.47;;;33.20;;
11141;SDS011;5625;50.122;19.864;2022-12-01T00:24:08;50.77;;;32.30;;
11141;SDS011;5625;50.122;19.864;2022-12-01T00:26:37;51.73;;;33.53;;
11141;SDS011;5625;50.122;19.864;2022-12-01T00:29:05;53.57;;;34.37;;
11141;SDS011;5625;50.122;19.864;2022-12-01T00:31:34;50.37;;;34.70;;
11141;SDS011;5625;50.122;19.864;2022-12-01T00:34:02;52.57;;;34.93;;
11141;SDS011;5625;50.122;19.864;2022-12-01T00:36:36;51.20;;;33.27;;
11141;SDS011;5625;50.122;19.864;2022-12-01T00:39:06;55.33;;;35.50;;
11141;SDS011;5625;50.122;19.864;2022-12-01T00:41:34;53.70;;;35.43;;
11141;SDS011;5625;50.122;19.864;2022-12-01T00:44:05;52.27;;;34.53;;
11141;SDS011;5625;50.122;19.864;2022-12-01T00:46:33;54.03;;;35.33;;
11141;SDS011;5625;50.122;19.864;2022-12-01T00:49:01;49.93;;;33.77;;
11141;SDS011;5625;50.122;19.864;2022-12-01T00:51:31;53.20;;;34.67;;
11141;SDS011;5625;50.122;19.864;2022-12-01T00:53:59;50.50;;;33.47;;
11141;SDS011;5625;50.122;19.864;2022-12-01T00:56:28;51.07;;;33.00;;
11141;SDS011;5625;50.122;19.864;2022-12-01T00:58:56;49.43;;;32.70;;
11141;SDS011;5625;50.122;19.864;2022-12-01T01:01:24;48.93;;;32.57;;
11141;SDS011;5625;50.122;19.864;2022-12-01T01:03:53;46.60;;;31.47;;
11141;SDS011;5625;50.122;19.864;2022-12-01T01:06:21;48.60;;;33.87;;
11141;SDS011;5625;50.122;19.864;2022-12-01T01:08:50;47.67;;;32.03;;
11141;SDS011;5625;50.122;19.864;2022-12-01T01:11:18;44.70;;;30.30;;
11141;SDS011;5625;50.122;19.864;2022-12-01T01:13:48;47.23;;;31.67;;
11141;SDS011;5625;50.122;19.864;2022-12-01T01:16:16;44.60;;;30.73;;
11141;SDS011;5625;50.122;19.864;2022-12-01T01:18:47;40.77;;;29.17;;
11141;SDS011;5625;50.122;19.864;2022-12-01T01:21:16;41.57;;;28.77;;
11141;SDS011;5625;50.122;19.864;2022-12-01T01:23:46;44.20;;;30.40;;
11141;SDS011;5625;50.122;19.864;2022-12-01T01:26:16;42.33;;;28.47;;
11141;SDS011;5625;50.122;19.864;2022-12-01T01:28:45;45.10;;;29.43;;
11141;SDS011;5625;50.122;19.864;2022-12-01T01:31:16;43.97;;;29.40;;
11141;SDS011;5625;50.122;19.864;2022-12-01T01:33:46;41.73;;;29.20;;
11141;SDS011;5625;50.122;19.864;2022-12-01T01:36:15;39.47;;;26.70;;
11141;SDS011;5625;50.122;19.864;2022-12-01T01:38:44;38.93;;;28.30;;
11141;SDS011;5625;50.122;19.864;2022-12-01T01:41:13;40.50;;;28.70;;
11141;SDS011;5625;50.122;19.864;2022-12-01T01:43:42;38.93;;;27.80;;
11141;SDS011;5625;50.122;19.864;2022-12-01T01:46:13;36.57;;;25.67;;
11141;SDS011;5625;50.122;19.864;2022-12-01T01:48:43;37.40;;;25.10;;
11141;SDS011;5625;50.122;19.864;2022-12-01T01:51:16;35.57;;;25.70;;
11141;SDS011;5625;50.122;19.864;2022-12-01T01:53:47;37.00;;;25.43;;
11141;SDS011;5625;50.122;19.864;2022-12-01T01:56:18;36.03;;;25.17;;
11141;SDS011;5625;50.122;19.864;2022-12-01T01:58:46;35.77;;;26.37;;
11141;SDS011;5625;50.122;19.864;2022-12-01T02:01:18;35.03;;;26.17;;
11141;SDS011;5625;50.122;19.864;2022-12-01T02:03:46;34.43;;;25.07;;
11141;SDS011;5625;50.122;19.864;2022-12-01T02:06:17;36.77;;;24.90;;
11141;SDS011;5625;50.122;19.864;2022-12-01T02:08:46;35.97;;;24.87;;
11141;SDS011;5625;50.122;19.864;2022-12-01T02:14:24;34.23;;;24.40;;
11141;SDS011;5625;50.122;19.864;2022-12-01T02:17:09;31.13;;;22.67;;
11141;SDS011;5625;50.122;19.864;2022-12-01T02:19:52;31.40;;;22.93;;
11141;SDS011;5625;50.122;19.864;2022-12-01T02:22:39;30.57;;;22.13;;
11141;SDS011;5625;50.122;19.864;2022-12-01T02:25:21;31.20;;;21.27;;
11141;SDS011;5625;50.122;19.864;2022-12-01T02:28:06;30.30;;;21.43;;
11141;SDS011;5625;50.122;19.864;2022-12-01T02:30:58;31.23;;;21.43;;
11141;SDS011;5625;50.122;19.864;2022-12-01T02:33:31;32.97;;;23.13;;
11141;SDS011;5625;50.122;19.864;2022-12-01T02:36:04;30.67;;;21.50;;
11141;SDS011;5625;50.122;19.864;2022-12-01T02:38:42;28.57;;;21.70;;
11141;SDS011;5625;50.122;19.864;2022-12-01T02:41:19;29.30;;;21.53;;
11141;SDS011;5625;50.122;19.864;2022-12-01T02:43:52;27.63;;;20.60;;
11141;SDS011;5625;50.122;19.864;2022-12-01T02:46:28;29.90;;;21.60;;
11141;SDS011;5625;50.122;19.864;2022-12-01T02:49:01;28.80;;;21.00;;
11141;SDS011;5625;50.122;19.864;2022-12-01T02:51:40;27.47;;;19.77;;
11141;SDS011;5625;50.122;19.864;2022-12-01T02:54:11;27.73;;;20.80;;
11141;SDS011;5625;50.122;19.864;2022-12-01T02:56:42;25.40;;;19.60;;
11141;SDS011;5625;50.122;19.864;2022-12-01T02:59:12;24.53;;;19.23;;
11141;SDS011;5625;50.122;19.864;2022-12-01T03:01:46;29.07;;;19.77;;
11141;SDS011;5625;50.122;19.864;2022-12-01T03:04:28;24.70;;;18.63;;
11141;SDS011;5625;50.122;19.864;2022-12-01T03:07:08;26.83;;;19.50;;
11141;SDS011;5625;50.122;19.864;2022-12-01T03:09:45;26.90;;;19.37;;
11141;SDS011;5625;50.122;19.864;2022-12-01T03:12:22;22.40;;;17.87;;
11141;SDS011;5625;50.122;19.864;2022-12-01T03:14:57;24.93;;;18.57;;
11141;SDS011;5625;50.122;19.864;2022-12-01T03:17:37;24.87;;;18.00;;
11141;SDS011;5625;50.122;19.864;2022-12-01T03:20:10;24.80;;;18.33;;
11141;SDS011;5625;50.122;19.864;2022-12-01T03:22:43;24.57;;;17.93;;
11141;SDS011;5625;50.122;19.864;2022-12-01T03:25:16;24.27;;;17.77;;
11141;SDS011;5625;50.122;19.864;2022-12-01T03:27:46;24.03;;;17.90;;
11141;SDS011;5625;50.122;19.864;2022-12-01T03:30:41;22.43;;;16.83;;
11141;SDS011;5625;50.122;19.864;2022-12-01T03:33:15;23.67;;;18.47;;
11141;SDS011;5625;50.122;19.864;2022-12-01T03:35:49;22.07;;;17.97;;
11141;SDS011;5625;50.122;19.864;2022-12-01T03:38:20;23.03;;;16.57;;
11141;SDS011;5625;50.122;19.864;2022-12-01T03:40:52;22.23;;;17.47;;
11141;SDS011;5625;50.122;19.864;2022-12-01T03:43:25;24.63;;;17.50;;
11141;SDS011;5625;50.122;19.864;2022-12-01T03:45:58;22.30;;;17.67;;
11141;SDS011;5625;50.122;19.864;2022-12-01T03:48:32;22.30;;;17.00;;
11141;SDS011;5625;50.122;19.864;2022-12-01T03:51:02;22.73;;;16.83;;
11141;SDS011;5625;50.122;19.864;2022-12-01T03:53:39;23.33;;;17.30;;
11141;SDS011;5625;50.122;19.864;2022-12-01T03:56:14;22.17;;;17.17;;
11141;SDS011;5625;50.122;19.864;2022-12-01T03:58:47;23.57;;;16.63;;
11141;SDS011;5625;50.122;19.864;2022-12-01T04:01:17;22.83;;;17.63;;
11141;SDS011;5625;50.122;19.864;2022-12-01T04:03:48;22.53;;;16.97;;
11141;SDS011;5625;50.122;19.864;2022-12-01T04:06:16;22.60;;;16.37;;
11141;SDS011;5625;50.122;19.864;2022-12-01T04:08:45;24.27;;;17.17;;
11141;SDS011;5625;50.122;19.864;2022-12-01T04:11:13;23.67;;;16.87;;
11141;SDS011;5625;50.122;19.864;2022-12-01T04:13:58;23.83;;;17.87;;
11141;SDS011;5625;50.122;19.864;2022-12-01T04:16:26;21.10;;;15.70;;
11141;SDS011;5625;50.122;19.864;2022-12-01T04:18:56;25.53;;;17.40;;
11141;SDS011;5625;50.122;19.864;2022-12-01T04:21:24;23.37;;;16.43;;
11141;SDS011;5625;50.122;19.864;2022-12-01T04:23:52;21.10;;;16.70;;
11141;SDS011;5625;50.122;19.864;2022-12-01T04:26:26;22.03;;;16.83;;
11141;SDS011;5625;50.122;19.864;2022-12-01T04:28:55;22.10;;;16.63;;
11141;SDS011;5625;50.122;19.864;2022-12-01T04:31:23;24.37;;;17.27;;
11141;SDS011;5625;50.122;19.864;2022-12-01T04:33:52;22.90;;;17.33;;
11141;SDS011;5625;50.122;19.864;2022-12-01T04:36:22;22.67;;;16.83;;
11141;SDS011;5625;50.122;19.864;2022-12-01T04:38:50;23.70;;;17.20;;
11141;SDS011;5625;50.122;19.864;2022-12-01T04:41:18;23.63;;;16.73;;
11141;SDS011;5625;50.122;19.864;2022-12-01T04:43:46;23.63;;;17.33;;
11141;SDS011;5625;50.122;19.864;2022-12-01T04:46:14;20.33;;;16.70;;
11141;SDS011;5625;50.122;19.864;2022-12-01T04:48:42;23.77;;;17.70;;
11141;SDS011;5625;50.122;19.864;2022-12-01T04:51:11;19.70;;;15.27;;
11141;SDS011;5625;50.122;19.864;2022-12-01T04:53:40;23.47;;;17.43;;
11141;SDS011;5625;50.122;19.864;2022-12-01T04:56:08;24.10;;;17.97;;
11141;SDS011;5625;50.122;19.864;2022-12-01T04:58:36;23.73;;;17.23;;
11141;SDS011;5625;50.122;19.864;2022-12-01T05:01:08;23.40;;;17.60;;
11141;SDS011;5625;50.122;19.864;2022-12-01T05:03:39;26.50;;;18.07;;
11141;SDS011;5625;50.122;19.864;2022-12-01T05:06:10;23.37;;;17.70;;
11141;SDS011;5625;50.122;19.864;2022-12-01T05:08:41;27.57;;;18.33;;
11141;SDS011;5625;50.122;19.864;2022-12-01T05:11:10;22.77;;;17.60;;
11141;SDS011;5625;50.122;19.864;2022-12-01T05:13:42;21.57;;;16.67;;
11141;SDS011;5625;50.122;19.864;2022-12-01T05:16:12;25.53;;;17.80;;
11141;SDS011;5625;50.122;19.864;2022-12-01T05:18:41;24.10;;;18.20;;
11141;SDS011;5625;50.122;19.864;2022-12-01T05:21:13;23.50;;;17.60;;
11141;SDS011;5625;50.122;19.864;2022-12-01T05:23:41;29.33;;;19.33;;
11141;SDS011;5625;50.122;19.864;2022-12-01T05:26:10;24.37;;;18.23;;
11141;SDS011;5625;50.122;19.864;2022-12-01T05:28:38;26.87;;;18.50;;
11141;SDS011;5625;50.122;19.864;2022-12-01T05:31:07;28.67;;;18.60;;
11141;SDS011;5625;50.122;19.864;2022-12-01T05:33:35;24.53;;;18.40;;
11141;SDS011;5625;50.122;19.864;2022-12-01T05:36:03;25.70;;;17.30;;
11141;SDS011;5625;50.122;19.864;2022-12-01T05:38:32;26.73;;;17.70;;
11141;SDS011;5625;50.122;19.864;2022-12-01T05:41:01;23.83;;;17.70;;
11141;SDS011;5625;50.122;19.864;2022-12-01T05:43:29;23.43;;;17.70;;
11141;SDS011;5625;50.122;19.864;2022-12-01T05:45:57;24.10;;;18.00;;
11141;SDS011;5625;50.122;19.864;2022-12-01T05:48:26;23.00;;;17.40;;
11141;SDS011;5625;50.122;19.864;2022-12-01T05:50:54;23.07;;;16.80;;
11141;SDS011;5625;50.122;19.864;2022-12-01T05:53:22;22.63;;;16.73;;
11141;SDS011;5625;50.122;19.864;2022-12-01T05:55:50;22.87;;;17.00;;
11141;SDS011;5625;50.122;19.864;2022-12-01T05:58:20;24.67;;;16.57;;
11141;SDS011;5625;50.122;19.864;2022-12-01T06:00:49;23.47;;;16.87;;
11141;SDS011;5625;50.122;19.864;2022-12-01T06:03:18;25.83;;;17.03;;
11141;SDS011;5625;50.122;19.864;2022-12-01T06:05:46;22.23;;;16.47;;
11141;SDS011;5625;50.122;19.864;2022-12-01T06:08:17;19.47;;;14.93;;
11141;SDS011;5625;50.122;19.864;2022-12-01T06:10:46;20.77;;;15.23;;
11141;SDS011;5625;50.122;19.864;2022-12-01T06:13:14;22.17;;;16.93;;
11141;SDS011;5625;50.122;19.864;2022-12-01T06:15:43;20.60;;;15.87;;
11141;SDS011;5625;50.122;19.864;2022-12-01T06:18:11;21.73;;;15.90;;
11141;SDS011;5625;50.122;19.864;2022-12-01T06:20:39;23.07;;;16.73;;
11141;SDS011;5625;50.122;19.864;2022-12-01T06:23:07;23.40;;;16.77;;
11141;SDS011;5625;50.122;19.864;2022-12-01T06:25:35;20.90;;;15.33;;
11141;SDS011;5625;50.122;19.864;2022-12-01T06:28:03;22.70;;;16.93;;
11141;SDS011;5625;50.122;19.864;2022-12-01T06:30:31;21.27;;;15.13;;
11141;SDS011;5625;50.122;19.864;2022-12-01T06:33:01;20.17;;;14.70;;
11141;SDS011;5625;50.122;19.864;2022-12-01T06:35:30;21.27;;;15.27;;
11141;SDS011;5625;50.122;19.864;2022-12-01T06:37:58;20.50;;;16.17;;
11141;SDS011;5625;50.122;19.864;2022-12-01T06:40:26;24.73;;;16.77;;
11141;SDS011;5625;50.122;19.864;2022-12-01T06:42:54;32.87;;;22.33;;
11141;SDS011;5625;50.122;19.864;2022-12-01T06:45:26;42.10;;;27.30;;
11141;SDS011;5625;50.122;19.864;2022-12-01T06:47:54;25.77;;;18.57;;
11141;SDS011;5625;50.122;19.864;2022-12-01T06:50:25;21.80;;;16.13;;
11141;SDS011;5625;50.122;19.864;2022-12-01T06:52:53;20.67;;;15.87;;
11141;SDS011;5625;50.122;19.864;2022-12-01T06:55:24;18.17;;;14.13;;
11141;SDS011;5625;50.122;19.864;2022-12-01T06:57:52;20.47;;;13.97;;
11141;SDS011;5625;50.122;19.864;2022-12-01T07:00:21;20.60;;;15.87;;
11141;SDS011;5625;50.122;19.864;2022-12-01T07:02:49;20.73;;;15.83;;
11141;SDS011;5625;50.122;19.864;2022-12-01T07:05:17;19.60;;;15.10;;
11141;SDS011;5625;50.122;19.864;2022-12-01T07:07:46;19.93;;;15.07;;
11141;SDS011;5625;50.122;19.864;2022-12-01T07:10:20;17.57;;;13.70;;
11141;SDS011;5625;50.122;19.864;2022-12-01T07:12:48;19.07;;;14.90;;
11141;SDS011;5625;50.122;19.864;2022-12-01T07:15:17;18.83;;;14.97;;
11141;SDS011;5625;50.122;19.864;2022-12-01T07:17:45;21.37;;;16.77;;
11141;SDS011;5625;50.122;19.864;2022-12-01T07:20:13;22.20;;;16.57;;
11141;SDS011;5625;50.122;19.864;2022-12-01T07:22:41;18.60;;;14.57;;
11141;SDS011;5625;50.122;19.864;2022-12-01T07:25:10;19.03;;;14.53;;
11141;SDS011;5625;50.122;19.864;2022-12-01T07:27:38;19.67;;;15.33;;
11141;SDS011;5625;50.122;19.864;2022-12-01T07:30:09;21.40;;;15.63;;
11141;SDS011;5625;50.122;19.864;2022-12-01T07:32:38;20.63;;;16.03;;
11141;SDS011;5625;50.122;19.864;2022-12-01T07:35:06;21.97;;;16.60;;
11141;SDS011;5625;50.122;19.864;2022-12-01T07:37:42;20.87;;;15.27;;
11141;SDS011;5625;50.122;19.864;2022-12-01T07:40:12;20.07;;;15.27;;
11141;SDS011;5625;50.122;19.864;2022-12-01T07:42:40;20.23;;;15.13;;
11141;SDS011;5625;50.122;19.864;2022-12-01T07:45:08;20.03;;;14.50;;
11141;SDS011;5625;50.122;19.864;2022-12-01T07:47:36;22.87;;;16.10;;
11141;SDS011;5625;50.122;19.864;2022-12-01T07:50:05;21.40;;;14.80;;
11141;SDS011;5625;50.122;19.864;2022-12-01T07:52:34;21.67;;;15.43;;
11141;SDS011;5625;50.122;19.864;2022-12-01T07:55:02;20.00;;;15.33;;
11141;SDS011;5625;50.122;19.864;2022-12-01T07:57:32;19.87;;;14.43;;
11141;SDS011;5625;50.122;19.864;2022-12-01T08:00:00;19.83;;;15.43;;
11141;SDS011;5625;50.122;19.864;2022-12-01T08:02:29;22.57;;;16.07;;
11141;SDS011;5625;50.122;19.864;2022-12-01T08:04:57;31.33;;;17.83;;
11141;SDS011;5625;50.122;19.864;2022-12-01T08:07:25;25.67;;;17.27;;
11141;SDS011;5625;50.122;19.864;2022-12-01T08:09:55;27.40;;;16.80;;
11141;SDS011;5625;50.122;19.864;2022-12-01T08:12:23;19.33;;;15.83;;
11141;SDS011;5625;50.122;19.864;2022-12-01T08:14:52;19.30;;;13.73;;
11141;SDS011;5625;50.122;19.864;2022-12-01T08:17:20;19.00;;;15.17;;
11141;SDS011;5625;50.122;19.864;2022-12-01T08:19:48;19.33;;;14.03;;
11141;SDS011;5625;50.122;19.864;2022-12-01T08:22:17;20.43;;;15.23;;
11141;SDS011;5625;50.122;19.864;2022-12-01T08:24:45;18.93;;;15.47;;
11141;SDS011;5625;50.122;19.864;2022-12-01T08:27:13;18.57;;;14.53;;
11141;SDS011;5625;50.122;19.864;2022-12-01T08:29:41;18.03;;;15.30;;
11141;SDS011;5625;50.122;19.864;2022-12-01T08:32:13;18.37;;;13.53;;
11141;SDS011;5625;50.122;19.864;2022-12-01T08:34:43;19.10;;;14.73;;
11141;SDS011;5625;50.122;19.864;2022-12-01T08:37:18;20.63;;;16.63;;
11141;SDS011;5625;50.122;19.864;2022-12-01T08:39:46;18.70;;;15.40;;
11141;SDS011;5625;50.122;19.864;2022-12-01T08:42:14;18.20;;;14.43;;
11141;SDS011;5625;50.122;19.864;2022-12-01T08:44:43;20.43;;;14.77;;
11141;SDS011;5625;50.122;19.864;2022-12-01T08:47:12;19.57;;;13.97;;
11141;SDS011;5625;50.122;19.864;2022-12-01T08:49:44;19.00;;;14.80;;
11141;SDS011;5625;50.122;19.864;2022-12-01T08:52:12;18.63;;;15.00;;
11141;SDS011;5625;50.122;19.864;2022-12-01T08:54:40;19.53;;;14.37;;
11141;SDS011;5625;50.122;19.864;2022-12-01T08:57:08;20.97;;;14.60;;
11141;SDS011;5625;50.122;19.864;2022-12-01T08:59:36;21.67;;;15.27;;
11141;SDS011;5625;50.122;19.864;2022-12-01T09:02:05;20.33;;;14.93;;
11141;SDS011;5625;50.122;19.864;2022-12-01T09:04:44;20.57;;;15.83;;
11141;SDS011;5625;50.122;19.864;2022-12-01T09:07:12;21.33;;;15.43;;
11141;SDS011;5625;50.122;19.864;2022-12-01T09:09:48;19.77;;;15.60;;
11141;SDS011;5625;50.122;19.864;2022-12-01T09:12:16;20.87;;;15.40;;
11141;SDS011;5625;50.122;19.864;2022-12-01T09:14:44;20.60;;;15.30;;
11141;SDS011;5625;50.122;19.864;2022-12-01T09:17:14;19.60;;;15.60;;
11141;SDS011;5625;50.122;19.864;2022-12-01T09:19:45;23.37;;;16.57;;
11141;SDS011;5625;50.122;19.864;2022-12-01T09:22:13;23.00;;;16.40;;
11141;SDS011;5625;50.122;19.864;2022-12-01T09:24:41;20.77;;;16.07;;
11141;SDS011;5625;50.122;19.864;2022-12-01T09:27:13;19.80;;;15.43;;
11141;SDS011;5625;50.122;19.864;2022-12-01T09:29:41;24.13;;;16.10;;
11141;SDS011;5625;50.122;19.864;2022-12-01T09:32:09;20.00;;;15.67;;
11141;SDS011;5625;50.122;19.864;2022-12-01T09:34:37;23.50;;;16.57;;
11141;SDS011;5625;50.122;19.864;2022-12-01T09:37:06;21.93;;;17.00;;
11141;SDS011;5625;50.122;19.864;2022-12-01T09:39:34;25.10;;;15.90;;
11141;SDS011;5625;50.122;19.864;2022-12-01T09:42:03;24.27;;;16.33;;
11141;SDS011;5625;50.122;19.864;2022-12-01T09:44:36;25.67;;;17.47;;
11141;SDS011;5625;50.122;19.864;2022-12-01T09:47:09;22.23;;;16.00;;
11141;SDS011;5625;50.122;19.864;2022-12-01T09:49:46;22.07;;;16.10;;
11141;SDS011;5625;50.122;19.864;2022-12-01T09:52:22;22.80;;;15.43;;
11141;SDS011;5625;50.122;19.864;2022-12-01T09:54:52;21.57;;;15.50;;
11141;SDS011;5625;50.122;19.864;2022-12-01T09:57:26;22.90;;;15.30;;
11141;SDS011;5625;50.122;19.864;2022-12-01T09:59:57;20.00;;;15.27;;
11141;SDS011;5625;50.122;19.864;2022-12-01T10:02:28;21.90;;;14.87;;
11141;SDS011;5625;50.122;19.864;2022-12-01T10:05:00;19.10;;;13.87;;
11141;SDS011;5625;50.122;19.864;2022-12-01T10:07:34;18.13;;;13.97;;
11141;SDS011;5625;50.122;19.864;2022-12-01T10:10:06;20.30;;;14.50;;
11141;SDS011;5625;50.122;19.864;2022-12-01T10:12:39;20.03;;;14.67;;
11141;SDS011;5625;50.122;19.864;2022-12-01T10:15:17;19.23;;;14.13;;
11141;SDS011;5625;50.122;19.864;2022-12-01T10:17:57;19.90;;;14.93;;
11141;SDS011;5625;50.122;19.864;2022-12-01T10:20:39;19.80;;;14.67;;
11141;SDS011;5625;50.122;19.864;2022-12-01T10:23:17;20.50;;;15.27;;
11141;SDS011;5625;50.122;19.864;2022-12-01T10:26:02;21.40;;;15.57;;
11141;SDS011;5625;50.122;19.864;2022-12-01T10:28:59;24.73;;;16.77;;
11141;SDS011;5625;50.122;19.864;2022-12-01T10:31:37;27.10;;;18.07;;
11141;SDS011;5625;50.122;19.864;2022-12-01T10:34:15;23.13;;;16.47;;
11141;SDS011;5625;50.122;19.864;2022-12-01T10:36:46;20.63;;;15.37;;
11141;SDS011;5625;50.122;19.864;2022-12-01T10:39:16;18.43;;;13.70;;
11141;SDS011;5625;50.122;19.864;2022-12-01T10:41:46;15.73;;;13.77;;
11141;SDS011;5625;50.122;19.864;2022-12-01T10:44:15;19.10;;;13.77;;
11141;SDS011;5625;50.122;19.864;2022-12-01T10:46:45;16.63;;;13.50;;
11141;SDS011;5625;50.122;19.864;2022-12-01T10:49:16;16.97;;;12.83;;
11141;SDS011;5625;50.122;19.864;2022-12-01T10:51:50;15.53;;;12.63;;
11141;SDS011;5625;50.122;19.864;2022-12-01T10:54:22;18.10;;;13.47;;
11141;SDS011;5625;50.122;19.864;2022-12-01T10:56:57;15.63;;;12.40;;
11141;SDS011;5625;50.122;19.864;2022-12-01T10:59:26;15.07;;;11.77;;
11141;SDS011;5625;50.122;19.864;2022-12-01T11:01:58;17.40;;;13.70;;
11141;SDS011;5625;50.122;19.864;2022-12-01T11:04:35;15.30;;;12.83;;
11141;SDS011;5625;50.122;19.864;2022-12-01T11:07:17;17.70;;;13.40;;
11141;SDS011;5625;50.122;19.864;2022-12-01T11:09:56;17.63;;;14.10;;
11141;SDS011;5625;50.122;19.864;2022-12-01T11:12:32;14.40;;;12.47;;
11141;SDS011;5625;50.122;19.864;2022-12-01T11:15:00;20.33;;;13.33;;
11141;SDS011;5625;50.122;19.864;2022-12-01T11:17:30;17.93;;;14.57;;
11141;SDS011;5625;50.122;19.864;2022-12-01T11:20:20;17.17;;;13.37;;
11141;SDS011;5625;50.122;19.864;2022-12-01T11:26:06;18.37;;;14.40;;
11141;SDS011;5625;50.122;19.864;2022-12-01T11:28:40;16.50;;;14.30;;
11141;SDS011;5625;50.122;19.864;2022-12-01T11:31:16;17.67;;;14.10;;
11141;SDS011;5625;50.122;19.864;2022-12-01T11:33:46;19.67;;;14.83;;
11141;SDS011;5625;50.122;19.864;2022-12-01T11:36:21;21.60;;;15.23;;
11141;SDS011;5625;50.122;19.864;2022-12-01T11:38:56;16.90;;;14.27;;
11141;SDS011;5625;50.122;19.864;2022-12-01T11:41:31;17.37;;;14.53;;
11141;SDS011;5625;50.122;19.864;2022-12-01T11:44:04;17.57;;;15.17;;
11141;SDS011;5625;50.122;19.864;2022-12-01T11:47:10;18.97;;;14.60;;
11141;SDS011;5625;50.122;19.864;2022-12-01T11:49:56;17.60;;;13.90;;
11141;SDS011;5625;50.122;19.864;2022-12-01T11:52:26;20.33;;;13.83;;
11141;SDS011;5625;50.122;19.864;2022-12-01T11:54:57;19.80;;;15.47;;
11141;SDS011;5625;50.122;19.864;2022-12-01T11:57:37;20.40;;;15.27;;
11141;SDS011;5625;50.122;19.864;2022-12-01T12:00:11;20.53;;;15.10;;
11141;SDS011;5625;50.122;19.864;2022-12-01T12:02:41;19.53;;;14.47;;
11141;SDS011;5625;50.122;19.864;2022-12-01T12:05:25;22.13;;;15.53;;
11141;SDS011;5625;50.122;19.864;2022-12-01T12:08:14;23.37;;;16.57;;
11141;SDS011;5625;50.122;19.864;2022-12-01T12:10:54;23.10;;;15.70;;
11141;SDS011;5625;50.122;19.864;2022-12-01T12:13:42;20.37;;;15.33;;
11141;SDS011;5625;50.122;19.864;2022-12-01T12:16:33;18.83;;;14.97;;
11141;SDS011;5625;50.122;19.864;2022-12-01T12:19:17;17.50;;;14.00;;
11141;SDS011;5625;50.122;19.864;2022-12-01T12:22:06;18.80;;;14.00;;
11141;SDS011;5625;50.122;19.864;2022-12-01T12:24:46;20.07;;;14.70;;
11141;SDS011;5625;50.122;19.864;2022-12-01T12:27:27;18.10;;;14.43;;
11141;SDS011;5625;50.122;19.864;2022-12-01T12:30:12;19.33;;;14.53;;
11141;SDS011;5625;50.122;19.864;2022-12-01T12:33:00;19.80;;;15.03;;
11141;SDS011;5625;50.122;19.864;2022-12-01T12:35:58;22.07;;;16.27;;
11141;SDS011;5625;50.122;19.864;2022-12-01T12:38:37;19.27;;;15.17;;
11141;SDS011;5625;50.122;19.864;2022-12-01T12:41:15;18.77;;;15.00;;
11141;SDS011;5625;50.122;19.864;2022-12-01T12:44:02;19.27;;;15.63;;
11141;SDS011;5625;50.122;19.864;2022-12-01T12:46:46;21.50;;;15.90;;
11141;SDS011;5625;50.122;19.864;2022-12-01T12:49:30;21.90;;;16.40;;
11141;SDS011;5625;50.122;19.864;2022-12-01T12:52:04;21.57;;;16.73;;
11141;SDS011;5625;50.122;19.864;2022-12-01T12:54:40;22.27;;;15.77;;
11141;SDS011;5625;50.122;19.864;2022-12-01T12:57:19;22.37;;;16.53;;
11141;SDS011;5625;50.122;19.864;2022-12-01T12:59:54;21.00;;;16.23;;
11141;SDS011;5625;50.122;19.864;2022-12-01T13:02:28;24.70;;;17.57;;
11141;SDS011;5625;50.122;19.864;2022-12-01T13:05:04;20.47;;;16.33;;
11141;SDS011;5625;50.122;19.864;2022-12-01T13:07:36;19.87;;;16.87;;
11141;SDS011;5625;50.122;19.864;2022-12-01T13:10:13;19.73;;;16.43;;
11141;SDS011;5625;50.122;19.864;2022-12-01T13:12:51;18.17;;;15.23;;
11141;SDS011;5625;50.122;19.864;2022-12-01T13:15:24;16.90;;;13.80;;
11141;SDS011;5625;50.122;19.864;2022-12-01T13:17:55;17.50;;;14.17;;
11141;SDS011;5625;50.122;19.864;2022-12-01T13:20:28;18.07;;;13.47;;
11141;SDS011;5625;50.122;19.864;2022-12-01T13:22:57;18.33;;;13.87;;
11141;SDS011;5625;50.122;19.864;2022-12-01T13:25:28;17.07;;;13.37;;
11141;SDS011;5625;50.122;19.864;2022-12-01T13:28:03;17.77;;;13.63;;
11141;SDS011;5625;50.122;19.864;2022-12-01T13:30:56;17.57;;;13.73;;
11141;SDS011;5625;50.122;19.864;2022-12-01T13:33:28;16.30;;;13.03;;
11141;SDS011;5625;50.122;19.864;2022-12-01T13:35:58;20.13;;;15.27;;
11141;SDS011;5625;50.122;19.864;2022-12-01T13:38:51;21.40;;;16.07;;
11141;SDS011;5625;50.122;19.864;2022-12-01T13:41:26;20.73;;;15.10;;
11141;SDS011;5625;50.122;19.864;2022-12-01T13:43:59;21.83;;;16.47;;
11141;SDS011;5625;50.122;19.864;2022-12-01T13:46:32;19.93;;;16.00;;
11141;SDS011;5625;50.122;19.864;2022-12-01T13:49:33;17.50;;;14.43;;
11141;SDS011;5625;50.122;19.864;2022-12-01T13:52:25;19.73;;;14.90;;
11141;SDS011;5625;50.122;19.864;2022-12-01T13:55:00;19.37;;;15.83;;
11141;SDS011;5625;50.122;19.864;2022-12-01T13:57:48;19.30;;;14.10;;
11141;SDS011;5625;50.122;19.864;2022-12-01T14:00:39;16.83;;;14.33;;
11141;SDS011;5625;50.122;19.864;2022-12-01T14:06:06;17.30;;;14.07;;
11141;SDS011;5625;50.122;19.864;2022-12-01T14:08:38;17.37;;;15.30;;
11141;SDS011;5625;50.122;19.864;2022-12-01T14:11:17;19.73;;;14.47;;
11141;SDS011;5625;50.122;19.864;2022-12-01T14:13:51;20.33;;;15.60;;
11141;SDS011;5625;50.122;19.864;2022-12-01T14:16:22;17.97;;;15.23;;
11141;SDS011;5625;50.122;19.864;2022-12-01T14:18:52;17.47;;;13.80;;
11141;SDS011;5625;50.122;19.864;2022-12-01T14:21:42;16.73;;;13.60;;
11141;SDS011;5625;50.122;19.864;2022-12-01T14:24:20;16.83;;;13.20;;
11141;SDS011;5625;50.122;19.864;2022-12-01T14:26:49;16.17;;;13.43;;
11141;SDS011;5625;50.122;19.864;2022-12-01T14:29:31;15.73;;;13.10;;
11141;SDS011;5625;50.122;19.864;2022-12-01T14:32:04;17.07;;;13.13;;
11141;SDS011;5625;50.122;19.864;2022-12-01T14:35:00;14.10;;;12.13;;
11141;SDS011;5625;50.122;19.864;2022-12-01T14:37:43;14.77;;;11.40;;
11141;SDS011;5625;50.122;19.864;2022-12-01T14:40:16;14.50;;;11.40;;
11141;SDS011;5625;50.122;19.864;2022-12-01T14:42:49;20.37;;;14.37;;
11141;SDS011;5625;50.122;19.864;2022-12-01T14:45:40;15.07;;;11.87;;
11141;SDS011;5625;50.122;19.864;2022-12-01T14:48:14;13.47;;;10.57;;
11141;SDS011;5625;50.122;19.864;2022-12-01T14:50:49;14.70;;;11.30;;
11141;SDS011;5625;50.122;19.864;2022-12-01T14:53:23;13.53;;;10.13;;
11141;SDS011;5625;50.122;19.864;2022-12-01T14:55:54;12.43;;;10.10;;
11141;SDS011;5625;50.122;19.864;2022-12-01T14:58:25;13.70;;;10.63;;
11141;SDS011;5625;50.122;19.864;2022-12-01T15:00:55;13.53;;;10.70;;
11141;SDS011;5625;50.122;19.864;2022-12-01T15:03:27;11.47;;;9.70;;